EW9824 Weather Reports


Display with metric or nautical units.
time (UTC)temp
F
wind
direction
speed
MPH
gust
MPH
rain 1hr
in
rain 24hr
in
rain mn
in
humidity
%
barometer
mb
20210624204540 85 277 5.0 0.0 0.00 0.00 0.00 40 1018.6
20210624203035 85 267 5.0 0.0 0.00 0.00 0.00 40 1018.9
20210624201533 85 265 6.0 0.0 0.00 0.00 0.00 41 1018.9
20210624200036 84 259 6.0 0.0 0.00 0.00 0.00 42 1018.9
20210624194537 83 267 5.0 0.0 0.00 0.00 0.00 44 1018.9
20210624193039 82 279 5.0 0.0 0.00 0.00 0.00 44 1018.9
20210624191533 82 296 5.0 0.0 0.00 0.00 0.00 44 1018.9
20210624190043 81 299 4.0 0.0 0.00 0.00 0.00 45 1018.9
20210624184540 82 324 3.0 0.0 0.00 0.00 0.00 45 1018.9
20210624183053 80 266 2.0 0.0 0.00 0.00 0.00 47 1019.3
20210624181537 79 271 4.0 0.0 0.00 0.00 0.00 49 1019.3
20210624180037 79 254 4.0 0.0 0.00 0.00 0.00 50 1019.3
20210624174604 78 256 5.0 0.0 0.00 0.00 0.00 50 1019.3
20210624173032 76 277 5.0 0.0 0.00 0.00 0.00 53 1019.3
20210624170040 76 281 6.0 0.0 0.00 0.00 0.00 54 1019.3
20210624164536 75 304 5.0 0.0 0.00 0.00 0.00 54 1019.3
20210624163047 75 346 3.0 0.0 0.00 0.00 0.00 55 1019.3
20210624161539 75 24 3.0 0.0 0.00 0.00 0.00 56 1019.3
20210624160033 74 34 4.0 0.0 0.00 0.00 0.00 57 1018.9
20210624154538 73 29 4.0 0.0 0.00 0.00 0.00 59 1018.9
20210624153036 72 27 4.0 0.0 0.00 0.00 0.00 63 1018.9
20210624151540 69 35 2.0 0.0 0.00 0.00 0.00 69 1018.6
20210624150040 66 83 1.0 0.0 0.00 0.00 0.00 76 1018.6
20210624144541 62 151 0.0 0.0 0.00 0.00 0.00 78 1018.6
20210624143037 61 179 2.0 0.0 0.00 0.00 0.00 79 1018.9
20210624141538 59 168 2.0 0.0 0.00 0.00 0.00 79 1018.9
20210624140035 57 183 3.0 0.0 0.00 0.00 0.00 80 1018.9
20210624134538 56 175 3.0 0.0 0.00 0.00 0.00 77 1018.9
20210624133039 56 172 5.0 0.0 0.00 0.00 0.00 78 1018.9
20210624131537 56 174 4.0 0.0 0.00 0.00 0.00 78 1018.9
20210624130030 56 171 4.0 0.0 0.00 0.00 0.00 78 1018.9
20210624124548 56 183 4.0 0.0 0.00 0.00 0.00 79 1018.9
20210624123035 55 168 5.0 0.0 0.00 0.00 0.00 80 1018.9
20210624120039 55 151 6.0 0.0 0.00 0.00 0.00 81 1018.6
20210624114538 56 164 4.0 0.0 0.00 0.00 0.00 80 1018.6
20210624113038 56 175 4.0 0.0 0.00 0.00 0.00 81 1018.6
20210624111536 55 176 4.0 0.0 0.00 0.00 0.00 82 1018.6
20210624110049 54 177 3.0 0.0 0.00 0.00 0.00 84 1018.6
20210624104617 54 168 3.0 0.0 0.00 0.00 0.00 85 1018.6
20210624103027 54 164 3.0 0.0 0.00 0.00 0.00 84 1018.6
20210624101539 55 156 2.0 0.0 0.00 0.00 0.00 83 1018.6
20210624100043 55 159 3.0 0.0 0.00 0.00 0.00 82 1018.6
20210624094536 56 156 2.0 0.0 0.00 0.00 0.00 81 1018.6
20210624093037 57 168 3.0 0.0 0.00 0.00 0.00 81 1018.2
20210624091538 56 177 3.0 0.0 0.00 0.00 0.00 82 1018.2
20210624090029 57 141 2.0 0.0 0.00 0.00 0.00 79 1018.2
20210624084535 59 141 2.0 0.0 0.00 0.00 0.00 76 1018.2
20210624083035 60 168 3.0 0.0 0.00 0.00 0.00 75 1018.2
20210624081539 60 159 4.0 0.0 0.00 0.00 0.00 75 1018.2
20210624080032 61 158 3.0 0.0 0.00 0.00 0.00 75 1017.9
20210624074533 61 165 5.0 0.0 0.00 0.00 0.00 74 1017.9
20210624073034 61 170 4.0 0.0 0.00 0.00 0.00 76 1018.2
20210624071534 60 170 4.0 0.0 0.00 0.00 0.00 79 1018.2
20210624070031 60 181 3.0 0.0 0.00 0.00 0.00 79 1018.2
20210624064528 61 146 2.0 0.0 0.00 0.00 0.00 78 1018.2
20210624063037 61 161 1.0 0.0 0.00 0.00 0.00 78 1018.2
20210624061542 61 192 1.0 0.0 0.00 0.00 0.00 76 1018.2
20210624060033 61 146 1.0 0.0 0.00 0.00 0.00 74 1018.2
20210624054534 63 126 2.0 0.0 0.00 0.00 0.00 70 1018.2
20210624053028 65 126 1.0 0.0 0.00 0.00 0.00 65 1018.2
20210624051540 67 167 1.0 0.0 0.00 0.00 0.00 60 1017.9
20210624050028 69 222 4.0 0.0 0.00 0.00 0.00 58 1017.9
20210624044542 69 233 4.0 0.0 0.00 0.00 0.00 56 1017.5
20210624043034 69 236 3.0 0.0 0.00 0.00 0.00 54 1017.1
20210624041545 70 224 4.0 0.0 0.00 0.00 0.00 54 1016.8
20210624040126 71 217 4.0 0.0 0.00 0.00 0.00 53 1016.8
20210624034540 72 221 5.0 0.0 0.00 0.00 0.00 52 1016.4
20210624033037 72 197 4.0 0.0 0.00 0.00 0.00 51 1016.4
20210624031537 73 247 2.0 0.0 0.00 0.00 0.00 49 1016.4
20210624030036 74 252 4.0 0.0 0.00 0.00 0.00 49 1016.1
20210624024532 75 240 4.0 0.0 0.00 0.00 0.00 49 1015.7
20210624023029 76 246 3.0 0.0 0.00 0.00 0.00 49 1015.7
20210624021538 77 277 3.0 0.0 0.00 0.00 0.00 47 1015.4
20210624020038 78 281 4.0 0.0 0.00 0.00 0.00 47 1015.4
20210624014542 78 267 5.0 0.0 0.00 0.00 0.00 46 1015.0
20210624013046 79 275 8.0 0.0 0.00 0.00 0.00 43 1014.7
20210624011536 79 272 7.0 0.0 0.00 0.00 0.00 42 1014.7
20210624010040 79 278 6.0 0.0 0.00 0.00 0.00 41 1015.0
20210624004529 80 287 6.0 0.0 0.00 0.00 0.00 43 1014.7
20210624003045 80 289 6.0 0.0 0.00 0.00 0.00 43 1014.7
20210624001538 79 303 6.0 0.0 0.00 0.00 0.00 46 1014.7
20210624000041 78 300 5.0 0.0 0.00 0.00 0.00 42 1015.0
20210623234540 79 288 7.0 0.0 0.00 0.00 0.00 38 1015.0
20210623233028 81 289 5.0 0.0 0.00 0.00 0.00 37 1015.0
20210623231616 83 285 7.0 0.0 0.00 0.00 0.00 35 1014.7
20210623230039 84 294 6.0 0.0 0.00 0.00 0.00 38 1014.7
20210623224532 83 292 7.0 0.0 0.00 0.00 0.00 37 1014.7
20210623223032 83 300 8.0 0.0 0.00 0.00 0.00 39 1014.7
20210623221531 83 313 7.0 0.0 0.00 0.00 0.00 38 1015.0
20210623220039 82 310 5.0 0.0 0.00 0.00 0.00 41 1015.0
20210623214532 82 326 7.0 0.0 0.00 0.00 0.00 42 1015.0
20210623213049 82 310 4.0 0.0 0.00 0.00 0.00 44 1015.0
20210623211547 82 300 6.0 0.0 0.00 0.00 0.00 45 1015.0
20210623210050 82 300 6.0 0.0 0.00 0.00 0.00 46 1015.0